sensor_id;sensor_type;location;lat;lon;timestamp;P1;durP1;ratioP1;P2;durP2;ratioP2
52542;SDS011;38449;52.696;6.186;2022-10-16T00:01:26;8.88;;;2.38;;
52542;SDS011;38449;52.696;6.186;2022-10-16T00:03:55;4.53;;;2.10;;
52542;SDS011;38449;52.696;6.186;2022-10-16T00:06:23;7.57;;;2.38;;
52542;SDS011;38449;52.696;6.186;2022-10-16T00:08:49;5.80;;;2.25;;
52542;SDS011;38449;52.696;6.186;2022-10-16T00:11:20;5.40;;;2.17;;
52542;SDS011;38449;52.696;6.186;2022-10-16T00:13:47;7.20;;;2.78;;
52542;SDS011;38449;52.696;6.186;2022-10-16T00:16:14;6.75;;;2.10;;
52542;SDS011;38449;52.696;6.186;2022-10-16T00:18:40;6.50;;;2.30;;
52542;SDS011;38449;52.696;6.186;2022-10-16T00:21:15;7.38;;;2.25;;
52542;SDS011;38449;52.696;6.186;2022-10-16T00:23:43;5.88;;;2.00;;
52542;SDS011;38449;52.696;6.186;2022-10-16T00:26:09;6.40;;;2.25;;
52542;SDS011;38449;52.696;6.186;2022-10-16T00:28:40;5.57;;;1.90;;
52542;SDS011;38449;52.696;6.186;2022-10-16T00:31:07;6.63;;;1.83;;
52542;SDS011;38449;52.696;6.186;2022-10-16T00:33:35;6.80;;;2.20;;
52542;SDS011;38449;52.696;6.186;2022-10-16T00:36:03;8.48;;;2.20;;
52542;SDS011;38449;52.696;6.186;2022-10-16T00:38:29;5.50;;;2.20;;
52542;SDS011;38449;52.696;6.186;2022-10-16T00:40:55;7.13;;;2.60;;
52542;SDS011;38449;52.696;6.186;2022-10-16T00:46:15;5.57;;;2.03;;
52542;SDS011;38449;52.696;6.186;2022-10-16T00:51:35;4.55;;;2.05;;
52542;SDS011;38449;52.696;6.186;2022-10-16T00:54:06;5.35;;;1.95;;
52542;SDS011;38449;52.696;6.186;2022-10-16T00:57:03;3.45;;;1.90;;
52542;SDS011;38449;52.696;6.186;2022-10-16T00:59:31;7.20;;;1.92;;
52542;SDS011;38449;52.696;6.186;2022-10-16T01:01:59;5.80;;;2.00;;
52542;SDS011;38449;52.696;6.186;2022-10-16T01:04:25;5.90;;;2.15;;
52542;SDS011;38449;52.696;6.186;2022-10-16T01:07:04;3.88;;;1.80;;
52542;SDS011;38449;52.696;6.186;2022-10-16T01:14:53;4.50;;;1.98;;
52542;SDS011;38449;52.696;6.186;2022-10-16T01:20:33;6.50;;;1.80;;
52542;SDS011;38449;52.696;6.186;2022-10-16T01:28:45;6.70;;;2.35;;
52542;SDS011;38449;52.696;6.186;2022-10-16T01:31:19;5.47;;;2.10;;
52542;SDS011;38449;52.696;6.186;2022-10-16T01:36:39;7.35;;;2.40;;
52542;SDS011;38449;52.696;6.186;2022-10-16T01:39:10;4.47;;;2.00;;
52542;SDS011;38449;52.696;6.186;2022-10-16T01:41:38;4.55;;;1.88;;
52542;SDS011;38449;52.696;6.186;2022-10-16T01:44:09;7.18;;;2.25;;
52542;SDS011;38449;52.696;6.186;2022-10-16T01:46:41;6.60;;;2.28;;
52542;SDS011;38449;52.696;6.186;2022-10-16T01:49:10;5.75;;;2.10;;
52542;SDS011;38449;52.696;6.186;2022-10-16T01:51:37;5.50;;;2.30;;
52542;SDS011;38449;52.696;6.186;2022-10-16T01:54:04;5.00;;;1.90;;
52542;SDS011;38449;52.696;6.186;2022-10-16T01:56:33;7.95;;;2.42;;
52542;SDS011;38449;52.696;6.186;2022-10-16T01:59:01;4.28;;;2.10;;
52542;SDS011;38449;52.696;6.186;2022-10-16T02:01:55;4.70;;;2.50;;
52542;SDS011;38449;52.696;6.186;2022-10-16T02:04:27;7.05;;;2.63;;
52542;SDS011;38449;52.696;6.186;2022-10-16T02:06:58;4.93;;;2.17;;
52542;SDS011;38449;52.696;6.186;2022-10-16T02:09:24;4.03;;;1.92;;
52542;SDS011;38449;52.696;6.186;2022-10-16T02:11:50;6.30;;;2.40;;
52542;SDS011;38449;52.696;6.186;2022-10-16T02:14:19;6.20;;;2.17;;
52542;SDS011;38449;52.696;6.186;2022-10-16T02:16:47;5.93;;;2.08;;
52542;SDS011;38449;52.696;6.186;2022-10-16T02:19:13;4.85;;;2.10;;
52542;SDS011;38449;52.696;6.186;2022-10-16T02:21:48;5.18;;;2.00;;
52542;SDS011;38449;52.696;6.186;2022-10-16T02:29:27;7.63;;;2.35;;
52542;SDS011;38449;52.696;6.186;2022-10-16T02:32:02;4.60;;;2.00;;
52542;SDS011;38449;52.696;6.186;2022-10-16T02:34:31;4.13;;;2.10;;
52542;SDS011;38449;52.696;6.186;2022-10-16T02:36:58;4.85;;;1.95;;
52542;SDS011;38449;52.696;6.186;2022-10-16T02:39:27;4.32;;;1.85;;
52542;SDS011;38449;52.696;6.186;2022-10-16T02:41:53;3.97;;;2.10;;
52542;SDS011;38449;52.696;6.186;2022-10-16T02:44:19;4.65;;;2.25;;
52542;SDS011;38449;52.696;6.186;2022-10-16T02:46:45;6.03;;;2.30;;
52542;SDS011;38449;52.696;6.186;2022-10-16T02:49:10;5.35;;;1.90;;
52542;SDS011;38449;52.696;6.186;2022-10-16T02:51:36;4.30;;;1.73;;
52542;SDS011;38449;52.696;6.186;2022-10-16T02:54:02;6.55;;;2.17;;
52542;SDS011;38449;52.696;6.186;2022-10-16T02:56:28;5.22;;;1.92;;
52542;SDS011;38449;52.696;6.186;2022-10-16T02:58:55;6.10;;;1.70;;
52542;SDS011;38449;52.696;6.186;2022-10-16T03:01:20;4.82;;;1.90;;
52542;SDS011;38449;52.696;6.186;2022-10-16T03:03:46;3.72;;;1.73;;
52542;SDS011;38449;52.696;6.186;2022-10-16T03:06:11;4.03;;;1.70;;
52542;SDS011;38449;52.696;6.186;2022-10-16T03:08:37;5.13;;;1.67;;
52542;SDS011;38449;52.696;6.186;2022-10-16T03:11:03;4.82;;;1.60;;
52542;SDS011;38449;52.696;6.186;2022-10-16T03:13:28;3.97;;;1.50;;
52542;SDS011;38449;52.696;6.186;2022-10-16T03:15:54;4.38;;;2.08;;
52542;SDS011;38449;52.696;6.186;2022-10-16T03:18:19;3.22;;;1.80;;
52542;SDS011;38449;52.696;6.186;2022-10-16T03:20:45;5.15;;;1.73;;
52542;SDS011;38449;52.696;6.186;2022-10-16T03:23:11;4.70;;;1.80;;
52542;SDS011;38449;52.696;6.186;2022-10-16T03:25:36;5.20;;;2.00;;
52542;SDS011;38449;52.696;6.186;2022-10-16T03:28:02;3.55;;;1.83;;
52542;SDS011;38449;52.696;6.186;2022-10-16T03:30:28;5.05;;;1.80;;
52542;SDS011;38449;52.696;6.186;2022-10-16T03:32:54;4.47;;;2.10;;
52542;SDS011;38449;52.696;6.186;2022-10-16T03:35:20;4.13;;;1.83;;
52542;SDS011;38449;52.696;6.186;2022-10-16T03:37:46;6.18;;;2.05;;
52542;SDS011;38449;52.696;6.186;2022-10-16T03:40:12;3.50;;;2.00;;
52542;SDS011;38449;52.696;6.186;2022-10-16T03:42:37;5.38;;;1.95;;
52542;SDS011;38449;52.696;6.186;2022-10-16T03:45:03;5.95;;;2.25;;
52542;SDS011;38449;52.696;6.186;2022-10-16T03:47:29;5.20;;;2.08;;
52542;SDS011;38449;52.696;6.186;2022-10-16T03:49:55;4.60;;;2.17;;
52542;SDS011;38449;52.696;6.186;2022-10-16T03:52:21;2.88;;;2.00;;
52542;SDS011;38449;52.696;6.186;2022-10-16T03:54:46;4.70;;;2.13;;
52542;SDS011;38449;52.696;6.186;2022-10-16T03:57:12;5.20;;;2.03;;
52542;SDS011;38449;52.696;6.186;2022-10-16T03:59:37;6.40;;;2.33;;
52542;SDS011;38449;52.696;6.186;2022-10-16T04:02:03;4.85;;;2.10;;
52542;SDS011;38449;52.696;6.186;2022-10-16T04:04:28;6.03;;;2.20;;
52542;SDS011;38449;52.696;6.186;2022-10-16T04:06:54;5.22;;;2.40;;
52542;SDS011;38449;52.696;6.186;2022-10-16T04:09:19;5.15;;;2.40;;
52542;SDS011;38449;52.696;6.186;2022-10-16T04:11:45;4.70;;;2.00;;
52542;SDS011;38449;52.696;6.186;2022-10-16T04:14:11;5.88;;;2.70;;
52542;SDS011;38449;52.696;6.186;2022-10-16T04:16:36;5.22;;;2.15;;
52542;SDS011;38449;52.696;6.186;2022-10-16T04:19:02;5.38;;;2.60;;
52542;SDS011;38449;52.696;6.186;2022-10-16T04:21:27;4.22;;;2.33;;
52542;SDS011;38449;52.696;6.186;2022-10-16T04:23:53;5.72;;;2.30;;
52542;SDS011;38449;52.696;6.186;2022-10-16T04:26:18;4.90;;;2.35;;
52542;SDS011;38449;52.696;6.186;2022-10-16T04:28:44;4.93;;;2.40;;
52542;SDS011;38449;52.696;6.186;2022-10-16T04:31:09;5.53;;;2.60;;
52542;SDS011;38449;52.696;6.186;2022-10-16T04:33:35;4.03;;;2.40;;
52542;SDS011;38449;52.696;6.186;2022-10-16T04:36:01;3.03;;;2.35;;
52542;SDS011;38449;52.696;6.186;2022-10-16T04:38:28;4.30;;;2.40;;
52542;SDS011;38449;52.696;6.186;2022-10-16T04:40:54;6.63;;;2.60;;
52542;SDS011;38449;52.696;6.186;2022-10-16T04:43:20;5.03;;;2.30;;
52542;SDS011;38449;52.696;6.186;2022-10-16T04:45:46;6.13;;;2.50;;
52542;SDS011;38449;52.696;6.186;2022-10-16T04:48:12;5.95;;;2.30;;
52542;SDS011;38449;52.696;6.186;2022-10-16T04:50:38;5.05;;;2.53;;
52542;SDS011;38449;52.696;6.186;2022-10-16T04:53:03;4.90;;;2.50;;
52542;SDS011;38449;52.696;6.186;2022-10-16T04:55:29;4.43;;;2.50;;
52542;SDS011;38449;52.696;6.186;2022-10-16T04:57:54;5.80;;;2.70;;
52542;SDS011;38449;52.696;6.186;2022-10-16T05:00:20;6.38;;;2.88;;
52542;SDS011;38449;52.696;6.186;2022-10-16T05:02:47;5.32;;;2.45;;
52542;SDS011;38449;52.696;6.186;2022-10-16T05:05:14;5.97;;;2.90;;
52542;SDS011;38449;52.696;6.186;2022-10-16T05:07:40;5.60;;;2.83;;
52542;SDS011;38449;52.696;6.186;2022-10-16T05:10:06;5.95;;;2.85;;
52542;SDS011;38449;52.696;6.186;2022-10-16T05:12:32;5.45;;;2.63;;
52542;SDS011;38449;52.696;6.186;2022-10-16T05:14:58;7.45;;;2.90;;
52542;SDS011;38449;52.696;6.186;2022-10-16T05:17:24;5.00;;;3.13;;
52542;SDS011;38449;52.696;6.186;2022-10-16T05:19:50;4.75;;;2.80;;
52542;SDS011;38449;52.696;6.186;2022-10-16T05:22:16;6.05;;;2.63;;
52542;SDS011;38449;52.696;6.186;2022-10-16T05:24:41;6.65;;;2.92;;
52542;SDS011;38449;52.696;6.186;2022-10-16T05:27:07;5.75;;;2.58;;
52542;SDS011;38449;52.696;6.186;2022-10-16T05:29:32;6.28;;;2.60;;
52542;SDS011;38449;52.696;6.186;2022-10-16T05:31:58;6.10;;;2.45;;
52542;SDS011;38449;52.696;6.186;2022-10-16T05:34:23;9.40;;;2.45;;
52542;SDS011;38449;52.696;6.186;2022-10-16T05:36:49;5.38;;;2.60;;
52542;SDS011;38449;52.696;6.186;2022-10-16T05:39:15;4.78;;;2.50;;
52542;SDS011;38449;52.696;6.186;2022-10-16T05:41:41;4.68;;;2.50;;
52542;SDS011;38449;52.696;6.186;2022-10-16T05:44:07;4.55;;;2.40;;
52542;SDS011;38449;52.696;6.186;2022-10-16T05:46:33;5.88;;;2.78;;
52542;SDS011;38449;52.696;6.186;2022-10-16T05:48:58;5.90;;;2.63;;
52542;SDS011;38449;52.696;6.186;2022-10-16T05:51:24;4.68;;;2.53;;
52542;SDS011;38449;52.696;6.186;2022-10-16T05:53:50;5.18;;;2.88;;
52542;SDS011;38449;52.696;6.186;2022-10-16T05:56:16;4.18;;;2.55;;
52542;SDS011;38449;52.696;6.186;2022-10-16T05:58:42;4.68;;;2.13;;
52542;SDS011;38449;52.696;6.186;2022-10-16T06:01:13;5.00;;;2.75;;
52542;SDS011;38449;52.696;6.186;2022-10-16T06:03:40;4.95;;;2.70;;
52542;SDS011;38449;52.696;6.186;2022-10-16T06:06:07;5.65;;;2.45;;
52542;SDS011;38449;52.696;6.186;2022-10-16T06:08:44;5.30;;;2.85;;
52542;SDS011;38449;52.696;6.186;2022-10-16T06:11:16;5.97;;;2.60;;
52542;SDS011;38449;52.696;6.186;2022-10-16T06:13:43;6.47;;;2.40;;
52542;SDS011;38449;52.696;6.186;2022-10-16T06:16:11;3.65;;;2.30;;
52542;SDS011;38449;52.696;6.186;2022-10-16T06:18:38;5.00;;;2.10;;
52542;SDS011;38449;52.696;6.186;2022-10-16T06:21:17;4.68;;;2.30;;
52542;SDS011;38449;52.696;6.186;2022-10-16T06:23:44;3.38;;;2.20;;
52542;SDS011;38449;52.696;6.186;2022-10-16T06:26:11;6.95;;;2.30;;
52542;SDS011;38449;52.696;6.186;2022-10-16T06:28:38;4.32;;;2.58;;
52542;SDS011;38449;52.696;6.186;2022-10-16T06:31:04;4.10;;;2.25;;
52542;SDS011;38449;52.696;6.186;2022-10-16T06:33:31;5.68;;;2.30;;
52542;SDS011;38449;52.696;6.186;2022-10-16T06:36:06;5.03;;;2.20;;
52542;SDS011;38449;52.696;6.186;2022-10-16T06:38:34;6.18;;;2.35;;
52542;SDS011;38449;52.696;6.186;2022-10-16T06:41:00;4.07;;;2.20;;
52542;SDS011;38449;52.696;6.186;2022-10-16T06:43:28;5.25;;;2.25;;
52542;SDS011;38449;52.696;6.186;2022-10-16T06:45:57;4.47;;;2.20;;
52542;SDS011;38449;52.696;6.186;2022-10-16T06:48:24;5.75;;;2.28;;
52542;SDS011;38449;52.696;6.186;2022-10-16T06:50:56;7.38;;;2.58;;
52542;SDS011;38449;52.696;6.186;2022-10-16T06:53:27;4.72;;;2.22;;
52542;SDS011;38449;52.696;6.186;2022-10-16T06:55:55;5.78;;;2.15;;
52542;SDS011;38449;52.696;6.186;2022-10-16T06:58:21;5.38;;;2.00;;
52542;SDS011;38449;52.696;6.186;2022-10-16T07:00:47;6.43;;;2.03;;
52542;SDS011;38449;52.696;6.186;2022-10-16T07:03:12;7.57;;;2.55;;
52542;SDS011;38449;52.696;6.186;2022-10-16T07:05:41;5.72;;;2.53;;
52542;SDS011;38449;52.696;6.186;2022-10-16T07:08:07;7.22;;;2.28;;
52542;SDS011;38449;52.696;6.186;2022-10-16T07:10:34;3.85;;;1.83;;
52542;SDS011;38449;52.696;6.186;2022-10-16T07:13:00;5.82;;;2.20;;
52542;SDS011;38449;52.696;6.186;2022-10-16T07:15:26;6.20;;;2.13;;
52542;SDS011;38449;52.696;6.186;2022-10-16T07:17:52;4.05;;;2.00;;
52542;SDS011;38449;52.696;6.186;2022-10-16T07:20:17;6.72;;;2.05;;
52542;SDS011;38449;52.696;6.186;2022-10-16T07:22:43;5.75;;;1.83;;
52542;SDS011;38449;52.696;6.186;2022-10-16T07:25:09;3.80;;;1.75;;
52542;SDS011;38449;52.696;6.186;2022-10-16T07:27:35;4.85;;;1.80;;
52542;SDS011;38449;52.696;6.186;2022-10-16T07:30:02;4.85;;;1.77;;
52542;SDS011;38449;52.696;6.186;2022-10-16T07:32:28;6.13;;;1.60;;
52542;SDS011;38449;52.696;6.186;2022-10-16T07:34:53;3.28;;;1.50;;
52542;SDS011;38449;52.696;6.186;2022-10-16T07:37:20;3.15;;;1.45;;
52542;SDS011;38449;52.696;6.186;2022-10-16T07:39:46;4.13;;;1.40;;
52542;SDS011;38449;52.696;6.186;2022-10-16T07:42:12;4.55;;;1.40;;
52542;SDS011;38449;52.696;6.186;2022-10-16T07:44:37;2.25;;;1.08;;
52542;SDS011;38449;52.696;6.186;2022-10-16T07:47:03;3.20;;;1.23;;
52542;SDS011;38449;52.696;6.186;2022-10-16T07:49:29;4.82;;;1.60;;
52542;SDS011;38449;52.696;6.186;2022-10-16T07:51:54;2.85;;;0.98;;
52542;SDS011;38449;52.696;6.186;2022-10-16T07:54:20;3.47;;;1.45;;
52542;SDS011;38449;52.696;6.186;2022-10-16T07:56:45;4.40;;;1.70;;
52542;SDS011;38449;52.696;6.186;2022-10-16T07:59:11;4.60;;;1.40;;
52542;SDS011;38449;52.696;6.186;2022-10-16T08:01:36;4.38;;;1.40;;
52542;SDS011;38449;52.696;6.186;2022-10-16T08:04:02;5.63;;;1.48;;
52542;SDS011;38449;52.696;6.186;2022-10-16T08:06:27;6.53;;;1.50;;
52542;SDS011;38449;52.696;6.186;2022-10-16T08:08:53;4.68;;;1.63;;
52542;SDS011;38449;52.696;6.186;2022-10-16T08:11:19;5.35;;;1.80;;
52542;SDS011;38449;52.696;6.186;2022-10-16T08:13:45;4.45;;;2.08;;
52542;SDS011;38449;52.696;6.186;2022-10-16T08:16:11;4.53;;;2.40;;
52542;SDS011;38449;52.696;6.186;2022-10-16T08:18:37;7.03;;;2.28;;
52542;SDS011;38449;52.696;6.186;2022-10-16T08:21:04;6.05;;;2.50;;
52542;SDS011;38449;52.696;6.186;2022-10-16T08:23:31;4.75;;;2.38;;
52542;SDS011;38449;52.696;6.186;2022-10-16T08:26:01;5.13;;;2.50;;
52542;SDS011;38449;52.696;6.186;2022-10-16T08:28:29;6.63;;;2.60;;
52542;SDS011;38449;52.696;6.186;2022-10-16T08:30:55;6.70;;;2.72;;
52542;SDS011;38449;52.696;6.186;2022-10-16T08:33:21;6.88;;;2.40;;
52542;SDS011;38449;52.696;6.186;2022-10-16T08:35:51;7.15;;;2.50;;
52542;SDS011;38449;52.696;6.186;2022-10-16T08:38:18;7.53;;;2.80;;
52542;SDS011;38449;52.696;6.186;2022-10-16T08:40:44;5.45;;;2.35;;
52542;SDS011;38449;52.696;6.186;2022-10-16T08:48:35;6.78;;;2.58;;
52542;SDS011;38449;52.696;6.186;2022-10-16T08:51:26;4.57;;;2.30;;
52542;SDS011;38449;52.696;6.186;2022-10-16T08:53:58;6.88;;;2.35;;
52542;SDS011;38449;52.696;6.186;2022-10-16T08:56:30;8.23;;;2.90;;
52542;SDS011;38449;52.696;6.186;2022-10-16T08:58:57;5.65;;;2.30;;
52542;SDS011;38449;52.696;6.186;2022-10-16T09:01:24;7.03;;;2.20;;
52542;SDS011;38449;52.696;6.186;2022-10-16T09:07:32;7.75;;;2.75;;
52542;SDS011;38449;52.696;6.186;2022-10-16T09:13:09;5.35;;;2.13;;
52542;SDS011;38449;52.696;6.186;2022-10-16T09:15:52;8.73;;;2.30;;
52542;SDS011;38449;52.696;6.186;2022-10-16T09:18:45;6.10;;;2.05;;
52542;SDS011;38449;52.696;6.186;2022-10-16T09:21:25;6.18;;;2.03;;
52542;SDS011;38449;52.696;6.186;2022-10-16T09:23:57;6.85;;;2.17;;
52542;SDS011;38449;52.696;6.186;2022-10-16T09:26:29;6.65;;;2.30;;
52542;SDS011;38449;52.696;6.186;2022-10-16T09:28:55;5.22;;;2.15;;
52542;SDS011;38449;52.696;6.186;2022-10-16T09:31:21;7.90;;;2.15;;
52542;SDS011;38449;52.696;6.186;2022-10-16T09:33:55;5.50;;;2.00;;
52542;SDS011;38449;52.696;6.186;2022-10-16T09:36:25;8.98;;;2.53;;
52542;SDS011;38449;52.696;6.186;2022-10-16T09:39:01;7.60;;;2.28;;
52542;SDS011;38449;52.696;6.186;2022-10-16T09:41:29;8.88;;;2.33;;
52542;SDS011;38449;52.696;6.186;2022-10-16T09:43:56;10.95;;;2.28;;
52542;SDS011;38449;52.696;6.186;2022-10-16T09:46:28;7.70;;;2.10;;
52542;SDS011;38449;52.696;6.186;2022-10-16T09:48:58;6.43;;;2.25;;
52542;SDS011;38449;52.696;6.186;2022-10-16T09:53:59;10.55;;;2.25;;
52542;SDS011;38449;52.696;6.186;2022-10-16T09:58:55;9.13;;;2.10;;
52542;SDS011;38449;52.696;6.186;2022-10-16T10:01:24;8.23;;;2.55;;
52542;SDS011;38449;52.696;6.186;2022-10-16T10:03:55;10.23;;;2.45;;
52542;SDS011;38449;52.696;6.186;2022-10-16T10:06:36;7.03;;;1.80;;
52542;SDS011;38449;52.696;6.186;2022-10-16T10:09:06;7.70;;;2.20;;
52542;SDS011;38449;52.696;6.186;2022-10-16T10:11:59;7.68;;;2.35;;
52542;SDS011;38449;52.696;6.186;2022-10-16T10:14:35;9.55;;;2.35;;
52542;SDS011;38449;52.696;6.186;2022-10-16T10:19:48;8.48;;;2.30;;
52542;SDS011;38449;52.696;6.186;2022-10-16T10:24:56;8.00;;;2.60;;
52542;SDS011;38449;52.696;6.186;2022-10-16T10:27:46;12.68;;;2.50;;
52542;SDS011;38449;52.696;6.186;2022-10-16T10:35:36;8.40;;;2.70;;
52542;SDS011;38449;52.696;6.186;2022-10-16T10:41:01;11.15;;;2.67;;
52542;SDS011;38449;52.696;6.186;2022-10-16T10:46:04;9.75;;;2.55;;
52542;SDS011;38449;52.696;6.186;2022-10-16T10:51:42;9.27;;;2.08;;
52542;SDS011;38449;52.696;6.186;2022-10-16T11:02:48;8.85;;;2.42;;
52542;SDS011;38449;52.696;6.186;2022-10-16T11:05:42;12.68;;;2.20;;
52542;SDS011;38449;52.696;6.186;2022-10-16T11:08:30;10.05;;;3.25;;
52542;SDS011;38449;52.696;6.186;2022-10-16T11:11:20;10.82;;;2.75;;
52542;SDS011;38449;52.696;6.186;2022-10-16T11:13:55;8.77;;;2.25;;
52542;SDS011;38449;52.696;6.186;2022-10-16T11:17:25;11.30;;;2.70;;
52542;SDS011;38449;52.696;6.186;2022-10-16T11:19:44;10.20;;;2.80;;
52542;SDS011;38449;52.696;6.186;2022-10-16T11:22:22;15.52;;;3.10;;
52542;SDS011;38449;52.696;6.186;2022-10-16T11:25:07;14.80;;;3.10;;
52542;SDS011;38449;52.696;6.186;2022-10-16T11:28:03;11.20;;;2.58;;
52542;SDS011;38449;52.696;6.186;2022-10-16T11:38:41;10.63;;;2.30;;
52542;SDS011;38449;52.696;6.186;2022-10-16T11:43:52;11.45;;;2.22;;
52542;SDS011;38449;52.696;6.186;2022-10-16T11:46:27;13.15;;;2.85;;
52542;SDS011;38449;52.696;6.186;2022-10-16T11:51:43;6.88;;;2.42;;
52542;SDS011;38449;52.696;6.186;2022-10-16T11:57:27;10.38;;;2.40;;
52542;SDS011;38449;52.696;6.186;2022-10-16T12:00:00;10.75;;;2.55;;
52542;SDS011;38449;52.696;6.186;2022-10-16T12:02:37;9.55;;;2.50;;
52542;SDS011;38449;52.696;6.186;2022-10-16T12:08:19;9.43;;;2.53;;
52542;SDS011;38449;52.696;6.186;2022-10-16T12:10:46;8.00;;;2.25;;
52542;SDS011;38449;52.696;6.186;2022-10-16T12:13:28;5.20;;;1.73;;
52542;SDS011;38449;52.696;6.186;2022-10-16T12:18:39;8.75;;;2.33;;
52542;SDS011;38449;52.696;6.186;2022-10-16T12:21:06;6.65;;;2.20;;
52542;SDS011;38449;52.696;6.186;2022-10-16T12:23:36;10.05;;;2.28;;
52542;SDS011;38449;52.696;6.186;2022-10-16T12:26:03;10.35;;;2.55;;
52542;SDS011;38449;52.696;6.186;2022-10-16T12:28:30;9.30;;;2.47;;
52542;SDS011;38449;52.696;6.186;2022-10-16T12:33:32;8.85;;;2.08;;
52542;SDS011;38449;52.696;6.186;2022-10-16T12:36:00;11.10;;;2.30;;
52542;SDS011;38449;52.696;6.186;2022-10-16T12:38:37;10.80;;;2.15;;
52542;SDS011;38449;52.696;6.186;2022-10-16T12:41:23;11.63;;;3.08;;
52542;SDS011;38449;52.696;6.186;2022-10-16T12:43:51;14.38;;;2.80;;
52542;SDS011;38449;52.696;6.186;2022-10-16T12:48:43;10.15;;;2.63;;
52542;SDS011;38449;52.696;6.186;2022-10-16T12:51:12;9.95;;;3.17;;
52542;SDS011;38449;52.696;6.186;2022-10-16T12:53:57;10.10;;;2.97;;
52542;SDS011;38449;52.696;6.186;2022-10-16T13:04:40;12.70;;;3.00;;
52542;SDS011;38449;52.696;6.186;2022-10-16T13:07:31;11.95;;;3.25;;
52542;SDS011;38449;52.696;6.186;2022-10-16T13:10:08;10.32;;;2.63;;
52542;SDS011;38449;52.696;6.186;2022-10-16T13:12:58;8.23;;;2.80;;
52542;SDS011;38449;52.696;6.186;2022-10-16T13:18:44;12.75;;;2.95;;
52542;SDS011;38449;52.696;6.186;2022-10-16T13:21:21;7.80;;;2.10;;
52542;SDS011;38449;52.696;6.186;2022-10-16T13:26:55;10.63;;;2.40;;
52542;SDS011;38449;52.696;6.186;2022-10-16T13:29:24;8.73;;;2.17;;
52542;SDS011;38449;52.696;6.186;2022-10-16T13:31:55;10.50;;;2.20;;
52542;SDS011;38449;52.696;6.186;2022-10-16T13:34:21;8.00;;;2.40;;
52542;SDS011;38449;52.696;6.186;2022-10-16T13:36:49;7.35;;;2.20;;
52542;SDS011;38449;52.696;6.186;2022-10-16T13:41:46;10.82;;;2.53;;
52542;SDS011;38449;52.696;6.186;2022-10-16T13:44:28;7.45;;;1.98;;
52542;SDS011;38449;52.696;6.186;2022-10-16T13:47:00;8.57;;;2.33;;
52542;SDS011;38449;52.696;6.186;2022-10-16T13:49:27;8.02;;;1.83;;
52542;SDS011;38449;52.696;6.186;2022-10-16T13:51:59;6.07;;;1.98;;
52542;SDS011;38449;52.696;6.186;2022-10-16T13:54:26;8.38;;;1.80;;
52542;SDS011;38449;52.696;6.186;2022-10-16T13:56:53;7.88;;;2.03;;
52542;SDS011;38449;52.696;6.186;2022-10-16T13:59:26;12.68;;;2.22;;
52542;SDS011;38449;52.696;6.186;2022-10-16T14:01:59;7.32;;;2.13;;
52542;SDS011;38449;52.696;6.186;2022-10-16T14:04:39;11.00;;;2.45;;
52542;SDS011;38449;52.696;6.186;2022-10-16T14:07:05;8.15;;;2.22;;
52542;SDS011;38449;52.696;6.186;2022-10-16T14:09:30;9.75;;;2.15;;
52542;SDS011;38449;52.696;6.186;2022-10-16T14:14:39;8.85;;;2.35;;
52542;SDS011;38449;52.696;6.186;2022-10-16T14:17:12;9.57;;;2.20;;
52542;SDS011;38449;52.696;6.186;2022-10-16T14:19:47;7.72;;;1.80;;
52542;SDS011;38449;52.696;6.186;2022-10-16T14:24:59;8.38;;;2.78;;
52542;SDS011;38449;52.696;6.186;2022-10-16T14:27:30;7.70;;;2.10;;
52542;SDS011;38449;52.696;6.186;2022-10-16T14:32:33;9.38;;;2.50;;
52542;SDS011;38449;52.696;6.186;2022-10-16T14:34:59;6.03;;;2.08;;
52542;SDS011;38449;52.696;6.186;2022-10-16T14:37:25;10.02;;;2.35;;
52542;SDS011;38449;52.696;6.186;2022-10-16T14:39:52;7.18;;;2.00;;
52542;SDS011;38449;52.696;6.186;2022-10-16T14:42:20;8.13;;;1.83;;
52542;SDS011;38449;52.696;6.186;2022-10-16T14:44:49;8.27;;;2.10;;
52542;SDS011;38449;52.696;6.186;2022-10-16T14:47:19;6.40;;;1.92;;
52542;SDS011;38449;52.696;6.186;2022-10-16T14:49:51;7.25;;;1.80;;
52542;SDS011;38449;52.696;6.186;2022-10-16T14:52:19;6.63;;;1.95;;
52542;SDS011;38449;52.696;6.186;2022-10-16T14:54:48;8.82;;;1.92;;
52542;SDS011;38449;52.696;6.186;2022-10-16T14:57:18;7.90;;;2.00;;
52542;SDS011;38449;52.696;6.186;2022-10-16T14:59:46;9.63;;;2.35;;
52542;SDS011;38449;52.696;6.186;2022-10-16T15:04:45;8.18;;;2.10;;
52542;SDS011;38449;52.696;6.186;2022-10-16T15:07:11;10.35;;;2.20;;
52542;SDS011;38449;52.696;6.186;2022-10-16T15:09:36;7.43;;;2.08;;
52542;SDS011;38449;52.696;6.186;2022-10-16T15:12:02;9.93;;;2.13;;
52542;SDS011;38449;52.696;6.186;2022-10-16T15:14:28;7.35;;;2.40;;
52542;SDS011;38449;52.696;6.186;2022-10-16T15:16:53;9.27;;;2.22;;
52542;SDS011;38449;52.696;6.186;2022-10-16T15:19:19;7.32;;;2.40;;
52542;SDS011;38449;52.696;6.186;2022-10-16T15:21:44;10.68;;;2.33;;
52542;SDS011;38449;52.696;6.186;2022-10-16T15:24:11;7.22;;;2.10;;
52542;SDS011;38449;52.696;6.186;2022-10-16T15:26:38;7.53;;;2.13;;
52542;SDS011;38449;52.696;6.186;2022-10-16T15:29:04;9.75;;;2.42;;
52542;SDS011;38449;52.696;6.186;2022-10-16T15:31:30;6.97;;;2.20;;
52542;SDS011;38449;52.696;6.186;2022-10-16T15:33:56;10.82;;;2.65;;
52542;SDS011;38449;52.696;6.186;2022-10-16T15:36:32;8.85;;;3.13;;
52542;SDS011;38449;52.696;6.186;2022-10-16T15:39:01;9.35;;;2.97;;
52542;SDS011;38449;52.696;6.186;2022-10-16T15:41:35;8.68;;;2.75;;
52542;SDS011;38449;52.696;6.186;2022-10-16T15:44:01;7.65;;;2.70;;
52542;SDS011;38449;52.696;6.186;2022-10-16T15:46:26;9.65;;;3.00;;
52542;SDS011;38449;52.696;6.186;2022-10-16T15:48:55;7.88;;;2.83;;
52542;SDS011;38449;52.696;6.186;2022-10-16T15:51:22;10.38;;;2.85;;
52542;SDS011;38449;52.696;6.186;2022-10-16T15:53:49;8.00;;;2.45;;
52542;SDS011;38449;52.696;6.186;2022-10-16T15:56:15;9.13;;;2.30;;
52542;SDS011;38449;52.696;6.186;2022-10-16T15:58:42;7.32;;;2.08;;
52542;SDS011;38449;52.696;6.186;2022-10-16T16:01:08;5.55;;;1.90;;
52542;SDS011;38449;52.696;6.186;2022-10-16T16:03:35;8.82;;;2.55;;
52542;SDS011;38449;52.696;6.186;2022-10-16T16:06:05;9.13;;;2.50;;
52542;SDS011;38449;52.696;6.186;2022-10-16T16:08:35;10.13;;;3.10;;
52542;SDS011;38449;52.696;6.186;2022-10-16T16:11:03;7.63;;;2.92;;
52542;SDS011;38449;52.696;6.186;2022-10-16T16:13:29;7.97;;;2.97;;
52542;SDS011;38449;52.696;6.186;2022-10-16T16:15:54;13.18;;;5.07;;
52542;SDS011;38449;52.696;6.186;2022-10-16T16:18:20;31.20;;;10.05;;
52542;SDS011;38449;52.696;6.186;2022-10-16T16:20:46;14.95;;;5.65;;
52542;SDS011;38449;52.696;6.186;2022-10-16T16:23:11;8.65;;;3.13;;
52542;SDS011;38449;52.696;6.186;2022-10-16T16:25:37;10.93;;;3.17;;
52542;SDS011;38449;52.696;6.186;2022-10-16T16:28:02;16.75;;;2.67;;
52542;SDS011;38449;52.696;6.186;2022-10-16T16:30:28;9.38;;;3.13;;
52542;SDS011;38449;52.696;6.186;2022-10-16T16:32:53;8.10;;;3.45;;
52542;SDS011;38449;52.696;6.186;2022-10-16T16:35:19;11.32;;;4.03;;
52542;SDS011;38449;52.696;6.186;2022-10-16T16:37:46;9.55;;;3.88;;
52542;SDS011;38449;52.696;6.186;2022-10-16T16:40:12;9.45;;;4.43;;
52542;SDS011;38449;52.696;6.186;2022-10-16T16:42:38;12.07;;;5.75;;
52542;SDS011;38449;52.696;6.186;2022-10-16T16:45:04;13.80;;;6.35;;
52542;SDS011;38449;52.696;6.186;2022-10-16T16:47:30;13.52;;;6.72;;
52542;SDS011;38449;52.696;6.186;2022-10-16T16:49:55;13.27;;;8.95;;
52542;SDS011;38449;52.696;6.186;2022-10-16T16:52:22;19.83;;;12.18;;
52542;SDS011;38449;52.696;6.186;2022-10-16T16:54:47;20.65;;;11.57;;
52542;SDS011;38449;52.696;6.186;2022-10-16T16:57:17;27.85;;;18.38;;
52542;SDS011;38449;52.696;6.186;2022-10-16T16:59:43;42.17;;;28.75;;
52542;SDS011;38449;52.696;6.186;2022-10-16T17:02:09;50.33;;;35.80;;
52542;SDS011;38449;52.696;6.186;2022-10-16T17:04:35;36.17;;;24.27;;